sensor_id;sensor_type;location;lat;lon;timestamp;P1;durP1;ratioP1;P2;durP2;ratioP2
77262;SDS011;66373;52.334;4.806;2023-07-16T00:00:00;7.88;;;3.78;;
77262;SDS011;66373;52.334;4.806;2023-07-16T00:02:31;14.65;;;4.50;;
77262;SDS011;66373;52.334;4.806;2023-07-16T00:04:58;11.27;;;4.47;;
77262;SDS011;66373;52.334;4.806;2023-07-16T00:07:25;7.15;;;4.03;;
77262;SDS011;66373;52.334;4.806;2023-07-16T00:09:52;10.32;;;4.28;;
77262;SDS011;66373;52.334;4.806;2023-07-16T00:12:21;12.45;;;4.53;;
77262;SDS011;66373;52.334;4.806;2023-07-16T00:14:48;7.50;;;4.30;;
77262;SDS011;66373;52.334;4.806;2023-07-16T00:17:15;8.68;;;4.00;;
77262;SDS011;66373;52.334;4.806;2023-07-16T00:19:43;12.30;;;4.22;;
77262;SDS011;66373;52.334;4.806;2023-07-16T00:22:10;8.25;;;3.75;;
77262;SDS011;66373;52.334;4.806;2023-07-16T00:24:37;11.00;;;4.68;;
77262;SDS011;66373;52.334;4.806;2023-07-16T00:27:04;11.93;;;3.70;;
77262;SDS011;66373;52.334;4.806;2023-07-16T00:29:35;12.77;;;3.97;;
77262;SDS011;66373;52.334;4.806;2023-07-16T00:32:02;7.50;;;3.30;;
77262;SDS011;66373;52.334;4.806;2023-07-16T00:34:30;8.88;;;3.60;;
77262;SDS011;66373;52.334;4.806;2023-07-16T00:36:57;10.35;;;3.85;;
77262;SDS011;66373;52.334;4.806;2023-07-16T00:39:27;7.32;;;3.50;;
77262;SDS011;66373;52.334;4.806;2023-07-16T00:41:54;7.97;;;4.00;;
77262;SDS011;66373;52.334;4.806;2023-07-16T00:44:21;7.90;;;3.97;;
77262;SDS011;66373;52.334;4.806;2023-07-16T00:46:50;8.27;;;3.67;;
77262;SDS011;66373;52.334;4.806;2023-07-16T00:49:18;8.75;;;3.45;;
77262;SDS011;66373;52.334;4.806;2023-07-16T00:51:47;6.95;;;3.20;;
77262;SDS011;66373;52.334;4.806;2023-07-16T00:54:14;8.60;;;3.47;;
77262;SDS011;66373;52.334;4.806;2023-07-16T00:56:41;8.70;;;3.63;;
77262;SDS011;66373;52.334;4.806;2023-07-16T00:59:09;6.90;;;3.40;;
77262;SDS011;66373;52.334;4.806;2023-07-16T01:01:37;9.15;;;3.65;;
77262;SDS011;66373;52.334;4.806;2023-07-16T01:04:10;8.95;;;3.67;;
77262;SDS011;66373;52.334;4.806;2023-07-16T01:06:38;8.98;;;3.75;;
77262;SDS011;66373;52.334;4.806;2023-07-16T01:09:08;8.45;;;3.75;;
77262;SDS011;66373;52.334;4.806;2023-07-16T01:11:41;5.70;;;3.40;;
77262;SDS011;66373;52.334;4.806;2023-07-16T01:14:10;7.00;;;4.07;;
77262;SDS011;66373;52.334;4.806;2023-07-16T01:16:38;7.00;;;3.70;;
77262;SDS011;66373;52.334;4.806;2023-07-16T01:19:07;10.50;;;4.10;;
77262;SDS011;66373;52.334;4.806;2023-07-16T01:21:37;9.88;;;4.10;;
77262;SDS011;66373;52.334;4.806;2023-07-16T01:24:17;7.28;;;3.40;;
77262;SDS011;66373;52.334;4.806;2023-07-16T01:27:08;5.82;;;4.10;;
77262;SDS011;66373;52.334;4.806;2023-07-16T01:29:58;6.50;;;3.50;;
77262;SDS011;66373;52.334;4.806;2023-07-16T01:32:29;7.22;;;3.83;;
77262;SDS011;66373;52.334;4.806;2023-07-16T01:35:00;9.48;;;4.15;;
77262;SDS011;66373;52.334;4.806;2023-07-16T01:37:29;8.52;;;4.18;;
77262;SDS011;66373;52.334;4.806;2023-07-16T01:39:56;10.52;;;4.28;;
77262;SDS011;66373;52.334;4.806;2023-07-16T01:42:24;8.82;;;3.92;;
77262;SDS011;66373;52.334;4.806;2023-07-16T01:44:51;8.70;;;4.10;;
77262;SDS011;66373;52.334;4.806;2023-07-16T01:47:20;7.70;;;3.65;;
77262;SDS011;66373;52.334;4.806;2023-07-16T01:49:51;7.72;;;4.47;;
77262;SDS011;66373;52.334;4.806;2023-07-16T01:52:18;6.90;;;4.13;;
77262;SDS011;66373;52.334;4.806;2023-07-16T01:54:45;9.38;;;4.10;;
77262;SDS011;66373;52.334;4.806;2023-07-16T01:57:13;8.75;;;4.15;;
77262;SDS011;66373;52.334;4.806;2023-07-16T01:59:40;8.27;;;4.00;;
77262;SDS011;66373;52.334;4.806;2023-07-16T02:02:07;5.90;;;4.03;;
77262;SDS011;66373;52.334;4.806;2023-07-16T02:04:35;6.55;;;4.10;;
77262;SDS011;66373;52.334;4.806;2023-07-16T02:07:02;10.63;;;4.47;;
77262;SDS011;66373;52.334;4.806;2023-07-16T02:09:30;10.98;;;4.32;;
77262;SDS011;66373;52.334;4.806;2023-07-16T02:11:57;6.15;;;3.88;;
77262;SDS011;66373;52.334;4.806;2023-07-16T02:14:24;6.53;;;4.10;;
77262;SDS011;66373;52.334;4.806;2023-07-16T02:16:51;5.97;;;3.92;;
77262;SDS011;66373;52.334;4.806;2023-07-16T02:19:18;10.35;;;4.38;;
77262;SDS011;66373;52.334;4.806;2023-07-16T02:21:47;8.88;;;4.15;;
77262;SDS011;66373;52.334;4.806;2023-07-16T02:24:14;7.55;;;4.43;;
77262;SDS011;66373;52.334;4.806;2023-07-16T02:26:41;9.25;;;4.50;;
77262;SDS011;66373;52.334;4.806;2023-07-16T02:29:10;13.45;;;4.63;;
77262;SDS011;66373;52.334;4.806;2023-07-16T02:31:37;11.90;;;4.35;;
77262;SDS011;66373;52.334;4.806;2023-07-16T02:34:04;8.25;;;4.28;;
77262;SDS011;66373;52.334;4.806;2023-07-16T02:36:32;8.32;;;4.32;;
77262;SDS011;66373;52.334;4.806;2023-07-16T02:38:59;11.75;;;4.88;;
77262;SDS011;66373;52.334;4.806;2023-07-16T02:41:27;10.07;;;4.45;;
77262;SDS011;66373;52.334;4.806;2023-07-16T02:43:58;8.93;;;4.53;;
77262;SDS011;66373;52.334;4.806;2023-07-16T02:46:27;9.18;;;4.90;;
77262;SDS011;66373;52.334;4.806;2023-07-16T02:48:54;9.88;;;4.53;;
77262;SDS011;66373;52.334;4.806;2023-07-16T02:51:21;10.80;;;5.00;;
77262;SDS011;66373;52.334;4.806;2023-07-16T02:53:48;7.72;;;4.88;;
77262;SDS011;66373;52.334;4.806;2023-07-16T02:56:17;5.72;;;4.18;;
77262;SDS011;66373;52.334;4.806;2023-07-16T02:58:44;8.38;;;4.85;;
77262;SDS011;66373;52.334;4.806;2023-07-16T03:01:11;9.45;;;5.10;;
77262;SDS011;66373;52.334;4.806;2023-07-16T03:03:39;10.57;;;4.72;;
77262;SDS011;66373;52.334;4.806;2023-07-16T03:06:06;7.68;;;4.53;;
77262;SDS011;66373;52.334;4.806;2023-07-16T03:08:34;9.05;;;4.90;;
77262;SDS011;66373;52.334;4.806;2023-07-16T03:11:01;12.23;;;4.82;;
77262;SDS011;66373;52.334;4.806;2023-07-16T03:13:30;9.10;;;4.80;;
77262;SDS011;66373;52.334;4.806;2023-07-16T03:15:57;7.25;;;4.60;;
77262;SDS011;66373;52.334;4.806;2023-07-16T03:18:27;10.02;;;4.47;;
77262;SDS011;66373;52.334;4.806;2023-07-16T03:20:55;8.70;;;4.57;;
77262;SDS011;66373;52.334;4.806;2023-07-16T03:23:22;12.10;;;5.18;;
77262;SDS011;66373;52.334;4.806;2023-07-16T03:25:50;9.05;;;4.82;;
77262;SDS011;66373;52.334;4.806;2023-07-16T03:28:17;9.00;;;4.80;;
77262;SDS011;66373;52.334;4.806;2023-07-16T03:30:46;10.35;;;4.70;;
77262;SDS011;66373;52.334;4.806;2023-07-16T03:33:16;9.77;;;5.10;;
77262;SDS011;66373;52.334;4.806;2023-07-16T03:35:43;16.27;;;5.32;;
77262;SDS011;66373;52.334;4.806;2023-07-16T03:38:11;9.18;;;5.50;;
77262;SDS011;66373;52.334;4.806;2023-07-16T03:40:39;12.13;;;5.00;;
77262;SDS011;66373;52.334;4.806;2023-07-16T03:43:07;12.13;;;5.63;;
77262;SDS011;66373;52.334;4.806;2023-07-16T03:45:34;10.95;;;5.10;;
77262;SDS011;66373;52.334;4.806;2023-07-16T03:48:03;13.95;;;5.28;;
77262;SDS011;66373;52.334;4.806;2023-07-16T03:50:31;9.88;;;5.40;;
77262;SDS011;66373;52.334;4.806;2023-07-16T03:52:58;17.13;;;5.63;;
77262;SDS011;66373;52.334;4.806;2023-07-16T03:55:26;11.07;;;5.20;;
77262;SDS011;66373;52.334;4.806;2023-07-16T03:57:54;12.77;;;4.70;;
77262;SDS011;66373;52.334;4.806;2023-07-16T04:00:21;8.80;;;4.88;;
77262;SDS011;66373;52.334;4.806;2023-07-16T04:02:50;8.98;;;4.97;;
77262;SDS011;66373;52.334;4.806;2023-07-16T04:05:19;11.07;;;5.18;;
77262;SDS011;66373;52.334;4.806;2023-07-16T04:07:46;8.95;;;5.18;;
77262;SDS011;66373;52.334;4.806;2023-07-16T04:10:13;8.07;;;4.65;;
77262;SDS011;66373;52.334;4.806;2023-07-16T04:12:40;10.82;;;4.90;;
77262;SDS011;66373;52.334;4.806;2023-07-16T04:15:08;8.90;;;4.85;;
77262;SDS011;66373;52.334;4.806;2023-07-16T04:17:36;10.63;;;4.75;;
77262;SDS011;66373;52.334;4.806;2023-07-16T04:20:04;9.70;;;4.90;;
77262;SDS011;66373;52.334;4.806;2023-07-16T04:22:34;8.55;;;4.70;;
77262;SDS011;66373;52.334;4.806;2023-07-16T04:25:05;8.70;;;4.50;;
77262;SDS011;66373;52.334;4.806;2023-07-16T04:27:32;8.13;;;4.80;;
77262;SDS011;66373;52.334;4.806;2023-07-16T04:29:59;9.52;;;5.03;;
77262;SDS011;66373;52.334;4.806;2023-07-16T04:32:26;7.78;;;4.30;;
77262;SDS011;66373;52.334;4.806;2023-07-16T04:34:54;10.93;;;4.60;;
77262;SDS011;66373;52.334;4.806;2023-07-16T04:37:21;8.60;;;4.88;;
77262;SDS011;66373;52.334;4.806;2023-07-16T04:39:49;7.55;;;4.65;;
77262;SDS011;66373;52.334;4.806;2023-07-16T04:42:17;9.63;;;4.30;;
77262;SDS011;66373;52.334;4.806;2023-07-16T04:44:46;6.50;;;4.28;;
77262;SDS011;66373;52.334;4.806;2023-07-16T04:47:13;9.85;;;4.53;;
77262;SDS011;66373;52.334;4.806;2023-07-16T04:49:40;11.18;;;4.30;;
77262;SDS011;66373;52.334;4.806;2023-07-16T04:52:07;9.27;;;4.38;;
77262;SDS011;66373;52.334;4.806;2023-07-16T04:54:35;7.20;;;4.28;;
77262;SDS011;66373;52.334;4.806;2023-07-16T04:57:05;8.57;;;4.60;;
77262;SDS011;66373;52.334;4.806;2023-07-16T04:59:35;7.10;;;4.22;;
77262;SDS011;66373;52.334;4.806;2023-07-16T05:02:02;10.63;;;4.90;;
77262;SDS011;66373;52.334;4.806;2023-07-16T05:04:31;7.55;;;4.45;;
77262;SDS011;66373;52.334;4.806;2023-07-16T05:06:58;6.82;;;4.18;;
77262;SDS011;66373;52.334;4.806;2023-07-16T05:09:25;10.52;;;5.50;;
77262;SDS011;66373;52.334;4.806;2023-07-16T05:11:53;9.07;;;4.90;;
77262;SDS011;66373;52.334;4.806;2023-07-16T05:14:21;9.10;;;4.60;;
77262;SDS011;66373;52.334;4.806;2023-07-16T05:16:48;11.70;;;4.82;;
77262;SDS011;66373;52.334;4.806;2023-07-16T05:19:15;11.02;;;5.10;;
77262;SDS011;66373;52.334;4.806;2023-07-16T05:21:42;6.47;;;4.53;;
77262;SDS011;66373;52.334;4.806;2023-07-16T05:24:09;8.20;;;4.95;;
77262;SDS011;66373;52.334;4.806;2023-07-16T05:26:37;8.45;;;4.50;;
77262;SDS011;66373;52.334;4.806;2023-07-16T05:29:04;8.43;;;4.32;;
77262;SDS011;66373;52.334;4.806;2023-07-16T05:31:33;11.23;;;4.93;;
77262;SDS011;66373;52.334;4.806;2023-07-16T05:34:00;8.40;;;4.43;;
77262;SDS011;66373;52.334;4.806;2023-07-16T05:36:27;9.07;;;5.00;;
77262;SDS011;66373;52.334;4.806;2023-07-16T05:38:54;9.60;;;5.35;;
77262;SDS011;66373;52.334;4.806;2023-07-16T05:41:21;7.55;;;4.88;;
77262;SDS011;66373;52.334;4.806;2023-07-16T05:43:48;9.80;;;4.72;;
77262;SDS011;66373;52.334;4.806;2023-07-16T05:46:15;10.38;;;5.07;;
77262;SDS011;66373;52.334;4.806;2023-07-16T05:48:43;10.70;;;5.13;;
77262;SDS011;66373;52.334;4.806;2023-07-16T05:51:10;7.65;;;4.78;;
77262;SDS011;66373;52.334;4.806;2023-07-16T05:53:37;10.15;;;4.97;;
77262;SDS011;66373;52.334;4.806;2023-07-16T05:56:05;9.27;;;4.72;;
77262;SDS011;66373;52.334;4.806;2023-07-16T05:58:32;7.97;;;4.40;;
77262;SDS011;66373;52.334;4.806;2023-07-16T06:00:59;7.85;;;4.53;;
77262;SDS011;66373;52.334;4.806;2023-07-16T06:03:26;9.65;;;4.88;;
77262;SDS011;66373;52.334;4.806;2023-07-16T06:05:54;10.68;;;5.47;;
77262;SDS011;66373;52.334;4.806;2023-07-16T06:08:21;7.25;;;4.72;;
77262;SDS011;66373;52.334;4.806;2023-07-16T06:10:49;6.80;;;4.50;;
77262;SDS011;66373;52.334;4.806;2023-07-16T06:13:17;9.40;;;4.63;;
77262;SDS011;66373;52.334;4.806;2023-07-16T06:15:45;10.05;;;5.00;;
77262;SDS011;66373;52.334;4.806;2023-07-16T06:18:13;7.20;;;4.45;;
77262;SDS011;66373;52.334;4.806;2023-07-16T06:20:42;9.70;;;5.10;;
77262;SDS011;66373;52.334;4.806;2023-07-16T06:23:11;12.18;;;4.43;;
77262;SDS011;66373;52.334;4.806;2023-07-16T06:25:39;7.63;;;4.45;;
77262;SDS011;66373;52.334;4.806;2023-07-16T06:28:09;6.72;;;4.55;;
77262;SDS011;66373;52.334;4.806;2023-07-16T06:30:37;7.65;;;4.55;;
77262;SDS011;66373;52.334;4.806;2023-07-16T06:33:04;6.38;;;4.50;;
77262;SDS011;66373;52.334;4.806;2023-07-16T06:35:31;5.47;;;3.88;;
77262;SDS011;66373;52.334;4.806;2023-07-16T06:37:58;6.78;;;4.05;;
77262;SDS011;66373;52.334;4.806;2023-07-16T06:40:28;10.10;;;4.85;;
77262;SDS011;66373;52.334;4.806;2023-07-16T06:42:55;8.43;;;5.13;;
77262;SDS011;66373;52.334;4.806;2023-07-16T06:45:22;8.63;;;4.72;;
77262;SDS011;66373;52.334;4.806;2023-07-16T06:47:49;8.27;;;5.40;;
77262;SDS011;66373;52.334;4.806;2023-07-16T06:50:16;8.50;;;4.22;;
77262;SDS011;66373;52.334;4.806;2023-07-16T06:52:43;8.60;;;4.72;;
77262;SDS011;66373;52.334;4.806;2023-07-16T06:55:10;10.80;;;4.50;;
77262;SDS011;66373;52.334;4.806;2023-07-16T06:57:39;8.60;;;4.55;;
77262;SDS011;66373;52.334;4.806;2023-07-16T07:00:07;7.03;;;4.68;;
77262;SDS011;66373;52.334;4.806;2023-07-16T07:02:37;10.10;;;4.47;;
77262;SDS011;66373;52.334;4.806;2023-07-16T07:05:04;7.82;;;4.38;;
77262;SDS011;66373;52.334;4.806;2023-07-16T07:07:31;9.77;;;4.63;;
77262;SDS011;66373;52.334;4.806;2023-07-16T07:09:58;8.07;;;4.70;;
77262;SDS011;66373;52.334;4.806;2023-07-16T07:12:26;9.85;;;4.70;;
77262;SDS011;66373;52.334;4.806;2023-07-16T07:14:54;11.25;;;4.28;;
77262;SDS011;66373;52.334;4.806;2023-07-16T07:17:21;7.57;;;4.57;;
77262;SDS011;66373;52.334;4.806;2023-07-16T07:19:48;9.35;;;5.00;;
77262;SDS011;66373;52.334;4.806;2023-07-16T07:22:15;10.93;;;4.38;;
77262;SDS011;66373;52.334;4.806;2023-07-16T07:24:42;7.10;;;4.85;;
77262;SDS011;66373;52.334;4.806;2023-07-16T07:27:09;9.82;;;4.53;;
77262;SDS011;66373;52.334;4.806;2023-07-16T07:29:36;8.68;;;4.20;;
77262;SDS011;66373;52.334;4.806;2023-07-16T07:32:05;9.20;;;4.53;;
77262;SDS011;66373;52.334;4.806;2023-07-16T07:34:33;9.10;;;5.10;;
77262;SDS011;66373;52.334;4.806;2023-07-16T07:37:00;8.27;;;5.00;;
77262;SDS011;66373;52.334;4.806;2023-07-16T07:39:27;6.53;;;4.28;;
77262;SDS011;66373;52.334;4.806;2023-07-16T07:41:54;9.88;;;5.03;;
77262;SDS011;66373;52.334;4.806;2023-07-16T07:44:23;11.13;;;4.45;;
77262;SDS011;66373;52.334;4.806;2023-07-16T07:46:50;9.73;;;4.70;;
77262;SDS011;66373;52.334;4.806;2023-07-16T07:49:18;11.73;;;4.85;;
77262;SDS011;66373;52.334;4.806;2023-07-16T07:51:45;8.10;;;4.40;;
77262;SDS011;66373;52.334;4.806;2023-07-16T07:54:14;7.05;;;4.72;;
77262;SDS011;66373;52.334;4.806;2023-07-16T07:56:41;9.40;;;4.60;;
77262;SDS011;66373;52.334;4.806;2023-07-16T07:59:08;8.02;;;4.60;;
77262;SDS011;66373;52.334;4.806;2023-07-16T08:01:35;9.75;;;4.90;;
77262;SDS011;66373;52.334;4.806;2023-07-16T08:04:03;7.55;;;4.53;;
77262;SDS011;66373;52.334;4.806;2023-07-16T08:06:31;6.82;;;4.55;;
77262;SDS011;66373;52.334;4.806;2023-07-16T08:08:59;7.18;;;4.30;;
77262;SDS011;66373;52.334;4.806;2023-07-16T08:11:26;7.03;;;4.38;;
77262;SDS011;66373;52.334;4.806;2023-07-16T08:13:53;10.27;;;4.63;;
77262;SDS011;66373;52.334;4.806;2023-07-16T08:16:20;6.18;;;4.63;;
77262;SDS011;66373;52.334;4.806;2023-07-16T08:18:47;8.75;;;4.80;;
77262;SDS011;66373;52.334;4.806;2023-07-16T08:21:15;8.43;;;4.63;;
77262;SDS011;66373;52.334;4.806;2023-07-16T08:23:47;8.57;;;4.50;;
77262;SDS011;66373;52.334;4.806;2023-07-16T08:26:15;6.32;;;4.40;;
77262;SDS011;66373;52.334;4.806;2023-07-16T08:28:43;7.57;;;4.53;;
77262;SDS011;66373;52.334;4.806;2023-07-16T08:31:10;7.30;;;4.30;;
77262;SDS011;66373;52.334;4.806;2023-07-16T08:33:38;11.00;;;4.50;;
77262;SDS011;66373;52.334;4.806;2023-07-16T08:36:05;9.05;;;5.10;;
77262;SDS011;66373;52.334;4.806;2023-07-16T08:38:32;8.48;;;4.85;;
77262;SDS011;66373;52.334;4.806;2023-07-16T08:41:00;9.13;;;4.95;;
77262;SDS011;66373;52.334;4.806;2023-07-16T08:43:28;6.75;;;4.68;;
77262;SDS011;66373;52.334;4.806;2023-07-16T08:45:55;9.75;;;5.22;;
77262;SDS011;66373;52.334;4.806;2023-07-16T08:48:23;10.73;;;5.57;;
77262;SDS011;66373;52.334;4.806;2023-07-16T08:50:51;9.30;;;5.40;;
77262;SDS011;66373;52.334;4.806;2023-07-16T08:53:18;11.13;;;5.65;;
77262;SDS011;66373;52.334;4.806;2023-07-16T08:55:46;14.55;;;6.28;;
77262;SDS011;66373;52.334;4.806;2023-07-16T08:58:15;11.27;;;5.53;;
77262;SDS011;66373;52.334;4.806;2023-07-16T09:00:43;10.05;;;5.63;;
77262;SDS011;66373;52.334;4.806;2023-07-16T09:03:11;11.20;;;5.68;;
77262;SDS011;66373;52.334;4.806;2023-07-16T09:05:39;14.50;;;5.28;;
77262;SDS011;66373;52.334;4.806;2023-07-16T09:08:06;11.63;;;5.80;;
77262;SDS011;66373;52.334;4.806;2023-07-16T09:10:34;9.02;;;4.93;;
77262;SDS011;66373;52.334;4.806;2023-07-16T09:13:01;12.65;;;6.03;;
77262;SDS011;66373;52.334;4.806;2023-07-16T09:15:29;10.38;;;4.85;;
77262;SDS011;66373;52.334;4.806;2023-07-16T09:17:56;9.27;;;4.82;;
77262;SDS011;66373;52.334;4.806;2023-07-16T09:20:23;7.90;;;4.75;;
77262;SDS011;66373;52.334;4.806;2023-07-16T09:22:53;7.47;;;5.10;;
77262;SDS011;66373;52.334;4.806;2023-07-16T09:25:25;11.50;;;5.25;;
77262;SDS011;66373;52.334;4.806;2023-07-16T09:27:52;9.32;;;4.65;;
77262;SDS011;66373;52.334;4.806;2023-07-16T09:30:20;8.55;;;4.38;;
77262;SDS011;66373;52.334;4.806;2023-07-16T09:32:48;10.23;;;4.78;;
77262;SDS011;66373;52.334;4.806;2023-07-16T09:35:16;9.60;;;5.03;;
77262;SDS011;66373;52.334;4.806;2023-07-16T09:37:44;6.95;;;4.25;;
77262;SDS011;66373;52.334;4.806;2023-07-16T09:40:13;9.02;;;4.35;;
77262;SDS011;66373;52.334;4.806;2023-07-16T09:42:41;8.18;;;4.53;;
77262;SDS011;66373;52.334;4.806;2023-07-16T09:45:12;11.93;;;4.40;;
77262;SDS011;66373;52.334;4.806;2023-07-16T09:47:44;9.77;;;4.65;;
77262;SDS011;66373;52.334;4.806;2023-07-16T09:50:12;9.07;;;4.55;;
77262;SDS011;66373;52.334;4.806;2023-07-16T09:52:46;9.60;;;4.22;;
77262;SDS011;66373;52.334;4.806;2023-07-16T09:55:17;7.75;;;4.45;;
77262;SDS011;66373;52.334;4.806;2023-07-16T09:57:48;8.48;;;4.03;;
77262;SDS011;66373;52.334;4.806;2023-07-16T10:00:17;9.82;;;4.40;;
77262;SDS011;66373;52.334;4.806;2023-07-16T10:02:46;9.32;;;4.28;;
77262;SDS011;66373;52.334;4.806;2023-07-16T10:05:15;8.25;;;4.25;;
77262;SDS011;66373;52.334;4.806;2023-07-16T10:07:49;10.57;;;4.35;;
77262;SDS011;66373;52.334;4.806;2023-07-16T10:14:11;12.98;;;4.32;;
77262;SDS011;66373;52.334;4.806;2023-07-16T10:16:39;10.23;;;4.50;;
77262;SDS011;66373;52.334;4.806;2023-07-16T10:19:07;9.82;;;4.90;;
77262;SDS011;66373;52.334;4.806;2023-07-16T10:21:37;9.70;;;3.97;;
77262;SDS011;66373;52.334;4.806;2023-07-16T10:24:15;7.70;;;4.40;;
77262;SDS011;66373;52.334;4.806;2023-07-16T10:26:45;7.18;;;4.00;;
77262;SDS011;66373;52.334;4.806;2023-07-16T10:29:12;11.80;;;4.20;;
77262;SDS011;66373;52.334;4.806;2023-07-16T10:31:41;11.23;;;4.28;;
77262;SDS011;66373;52.334;4.806;2023-07-16T10:34:09;7.43;;;4.13;;
77262;SDS011;66373;52.334;4.806;2023-07-16T10:36:38;10.00;;;4.30;;
77262;SDS011;66373;52.334;4.806;2023-07-16T10:39:07;8.77;;;3.88;;
77262;SDS011;66373;52.334;4.806;2023-07-16T10:41:34;10.00;;;3.97;;
77262;SDS011;66373;52.334;4.806;2023-07-16T10:44:14;8.48;;;3.88;;
77262;SDS011;66373;52.334;4.806;2023-07-16T10:46:48;7.78;;;4.20;;
77262;SDS011;66373;52.334;4.806;2023-07-16T10:49:26;10.15;;;4.25;;
77262;SDS011;66373;52.334;4.806;2023-07-16T10:52:00;10.77;;;4.20;;
77262;SDS011;66373;52.334;4.806;2023-07-16T10:54:31;8.65;;;3.83;;
77262;SDS011;66373;52.334;4.806;2023-07-16T10:57:07;6.57;;;3.17;;
77262;SDS011;66373;52.334;4.806;2023-07-16T10:59:41;7.60;;;3.63;;
77262;SDS011;66373;52.334;4.806;2023-07-16T11:02:10;6.32;;;3.25;;
77262;SDS011;66373;52.334;4.806;2023-07-16T11:04:39;8.48;;;3.50;;
77262;SDS011;66373;52.334;4.806;2023-07-16T11:07:09;9.27;;;3.42;;
77262;SDS011;66373;52.334;4.806;2023-07-16T11:09:41;6.15;;;3.22;;
77262;SDS011;66373;52.334;4.806;2023-07-16T11:12:15;8.57;;;3.42;;
77262;SDS011;66373;52.334;4.806;2023-07-16T11:14:46;9.65;;;3.40;;
77262;SDS011;66373;52.334;4.806;2023-07-16T11:17:14;7.30;;;3.17;;
77262;SDS011;66373;52.334;4.806;2023-07-16T11:19:44;6.15;;;2.90;;
77262;SDS011;66373;52.334;4.806;2023-07-16T11:22:14;11.52;;;3.35;;
77262;SDS011;66373;52.334;4.806;2023-07-16T11:24:47;4.95;;;2.42;;
77262;SDS011;66373;52.334;4.806;2023-07-16T11:27:16;7.90;;;2.50;;
77262;SDS011;66373;52.334;4.806;2023-07-16T11:29:47;6.80;;;3.20;;
77262;SDS011;66373;52.334;4.806;2023-07-16T11:32:25;6.53;;;3.00;;
77262;SDS011;66373;52.334;4.806;2023-07-16T11:34:56;9.88;;;3.35;;
77262;SDS011;66373;52.334;4.806;2023-07-16T11:37:26;6.28;;;2.75;;
77262;SDS011;66373;52.334;4.806;2023-07-16T11:40:21;6.63;;;3.00;;
77262;SDS011;66373;52.334;4.806;2023-07-16T11:42:48;6.40;;;2.42;;
77262;SDS011;66373;52.334;4.806;2023-07-16T11:45:16;8.15;;;2.90;;
77262;SDS011;66373;52.334;4.806;2023-07-16T11:47:44;8.05;;;2.92;;
77262;SDS011;66373;52.334;4.806;2023-07-16T11:50:12;5.28;;;2.22;;
77262;SDS011;66373;52.334;4.806;2023-07-16T11:52:41;7.65;;;2.67;;
77262;SDS011;66373;52.334;4.806;2023-07-16T11:55:08;8.15;;;2.35;;
77262;SDS011;66373;52.334;4.806;2023-07-16T11:57:35;7.63;;;2.60;;
77262;SDS011;66373;52.334;4.806;2023-07-16T12:00:02;6.97;;;2.30;;
77262;SDS011;66373;52.334;4.806;2023-07-16T12:02:34;4.80;;;2.33;;
77262;SDS011;66373;52.334;4.806;2023-07-16T12:05:01;5.22;;;2.47;;
77262;SDS011;66373;52.334;4.806;2023-07-16T12:07:31;8.32;;;2.40;;
77262;SDS011;66373;52.334;4.806;2023-07-16T12:12:28;7.40;;;2.88;;
77262;SDS011;66373;52.334;4.806;2023-07-16T12:14:55;9.15;;;2.50;;
77262;SDS011;66373;52.334;4.806;2023-07-16T12:17:25;5.75;;;2.60;;
77262;SDS011;66373;52.334;4.806;2023-07-16T12:19:56;9.52;;;2.55;;
77262;SDS011;66373;52.334;4.806;2023-07-16T12:22:24;6.78;;;2.67;;
77262;SDS011;66373;52.334;4.806;2023-07-16T12:24:54;8.05;;;3.08;;
77262;SDS011;66373;52.334;4.806;2023-07-16T12:27:23;9.23;;;2.92;;
77262;SDS011;66373;52.334;4.806;2023-07-16T12:29:50;12.57;;;2.90;;
77262;SDS011;66373;52.334;4.806;2023-07-16T12:32:19;10.60;;;2.78;;
77262;SDS011;66373;52.334;4.806;2023-07-16T12:34:49;9.57;;;3.30;;
77262;SDS011;66373;52.334;4.806;2023-07-16T12:37:25;10.57;;;2.92;;
77262;SDS011;66373;52.334;4.806;2023-07-16T12:39:52;7.70;;;2.40;;
77262;SDS011;66373;52.334;4.806;2023-07-16T12:42:24;9.43;;;3.15;;
77262;SDS011;66373;52.334;4.806;2023-07-16T12:44:54;14.02;;;2.95;;
77262;SDS011;66373;52.334;4.806;2023-07-16T12:47:23;9.10;;;2.55;;
77262;SDS011;66373;52.334;4.806;2023-07-16T12:49:54;11.32;;;2.92;;
77262;SDS011;66373;52.334;4.806;2023-07-16T12:52:24;8.80;;;2.65;;
77262;SDS011;66373;52.334;4.806;2023-07-16T12:54:59;10.57;;;2.92;;
77262;SDS011;66373;52.334;4.806;2023-07-16T12:57:43;12.50;;;2.75;;
77262;SDS011;66373;52.334;4.806;2023-07-16T13:00:21;14.15;;;2.97;;
77262;SDS011;66373;52.334;4.806;2023-07-16T13:02:57;9.85;;;2.78;;
77262;SDS011;66373;52.334;4.806;2023-07-16T13:05:30;11.35;;;2.75;;
77262;SDS011;66373;52.334;4.806;2023-07-16T13:07:57;10.65;;;2.45;;
77262;SDS011;66373;52.334;4.806;2023-07-16T13:10:24;8.30;;;2.58;;
77262;SDS011;66373;52.334;4.806;2023-07-16T13:12:52;11.38;;;2.60;;
77262;SDS011;66373;52.334;4.806;2023-07-16T13:15:20;9.93;;;2.70;;
77262;SDS011;66373;52.334;4.806;2023-07-16T13:17:47;9.20;;;3.00;;
77262;SDS011;66373;52.334;4.806;2023-07-16T13:20:14;9.65;;;2.47;;
77262;SDS011;66373;52.334;4.806;2023-07-16T13:22:41;4.32;;;2.17;;
77262;SDS011;66373;52.334;4.806;2023-07-16T13:25:09;6.25;;;2.65;;
77262;SDS011;66373;52.334;4.806;2023-07-16T13:27:36;9.25;;;2.30;;
77262;SDS011;66373;52.334;4.806;2023-07-16T13:30:05;4.75;;;2.20;;
77262;SDS011;66373;52.334;4.806;2023-07-16T13:32:33;9.00;;;2.65;;
77262;SDS011;66373;52.334;4.806;2023-07-16T13:35:00;9.20;;;2.58;;
77262;SDS011;66373;52.334;4.806;2023-07-16T13:37:28;7.43;;;2.55;;
77262;SDS011;66373;52.334;4.806;2023-07-16T13:39:55;7.97;;;2.55;;
77262;SDS011;66373;52.334;4.806;2023-07-16T13:42:22;7.00;;;2.25;;
77262;SDS011;66373;52.334;4.806;2023-07-16T13:44:52;6.53;;;2.20;;
77262;SDS011;66373;52.334;4.806;2023-07-16T13:47:20;7.90;;;2.50;;
77262;SDS011;66373;52.334;4.806;2023-07-16T13:49:47;7.00;;;2.42;;
77262;SDS011;66373;52.334;4.806;2023-07-16T13:52:14;11.70;;;3.00;;
77262;SDS011;66373;52.334;4.806;2023-07-16T13:54:42;7.65;;;2.42;;
77262;SDS011;66373;52.334;4.806;2023-07-16T13:57:09;9.60;;;2.47;;
77262;SDS011;66373;52.334;4.806;2023-07-16T13:59:36;6.28;;;2.00;;
77262;SDS011;66373;52.334;4.806;2023-07-16T14:02:03;8.23;;;2.80;;
77262;SDS011;66373;52.334;4.806;2023-07-16T14:04:34;7.03;;;2.50;;
77262;SDS011;66373;52.334;4.806;2023-07-16T14:07:01;6.95;;;2.40;;
77262;SDS011;66373;52.334;4.806;2023-07-16T14:09:29;13.40;;;3.20;;
77262;SDS011;66373;52.334;4.806;2023-07-16T14:11:56;8.55;;;2.70;;
77262;SDS011;66373;52.334;4.806;2023-07-16T14:14:29;7.75;;;2.30;;
77262;SDS011;66373;52.334;4.806;2023-07-16T14:16:56;12.57;;;2.97;;
77262;SDS011;66373;52.334;4.806;2023-07-16T14:19:23;6.70;;;2.30;;
77262;SDS011;66373;52.334;4.806;2023-07-16T14:21:54;8.05;;;2.33;;
77262;SDS011;66373;52.334;4.806;2023-07-16T14:24:21;8.88;;;2.40;;
77262;SDS011;66373;52.334;4.806;2023-07-16T14:26:49;6.65;;;1.98;;
77262;SDS011;66373;52.334;4.806;2023-07-16T14:29:17;9.50;;;2.70;;
77262;SDS011;66373;52.334;4.806;2023-07-16T14:31:44;7.72;;;2.40;;
77262;SDS011;66373;52.334;4.806;2023-07-16T14:34:12;7.30;;;2.30;;
77262;SDS011;66373;52.334;4.806;2023-07-16T14:36:43;6.63;;;2.00;;
77262;SDS011;66373;52.334;4.806;2023-07-16T14:39:12;9.77;;;2.50;;
77262;SDS011;66373;52.334;4.806;2023-07-16T14:41:40;7.35;;;2.90;;
77262;SDS011;66373;52.334;4.806;2023-07-16T14:44:07;7.25;;;2.58;;
77262;SDS011;66373;52.334;4.806;2023-07-16T14:46:34;5.20;;;2.13;;
77262;SDS011;66373;52.334;4.806;2023-07-16T14:49:02;9.98;;;2.45;;
77262;SDS011;66373;52.334;4.806;2023-07-16T14:51:32;8.52;;;2.75;;
77262;SDS011;66373;52.334;4.806;2023-07-16T14:54:05;10.05;;;2.58;;
77262;SDS011;66373;52.334;4.806;2023-07-16T14:56:34;8.85;;;2.90;;